createdAt,value
2017-10-19T00:01:37.531Z,27.50
2017-10-19T00:04:04.359Z,29.05
2017-10-19T00:06:30.385Z,35.45
2017-10-19T00:08:56.429Z,24.87
2017-10-19T00:11:23.264Z,27.27
2017-10-19T00:13:50.033Z,26.30
2017-10-19T00:16:16.078Z,28.62
2017-10-19T00:18:42.112Z,28.90
2017-10-19T00:21:08.165Z,29.58
2017-10-19T00:23:35.127Z,31.90
2017-10-19T00:26:01.213Z,28.80
2017-10-19T00:28:27.249Z,26.42
2017-10-19T00:30:54.012Z,31.25
2017-10-19T00:33:20.333Z,28.03
2017-10-19T00:35:47.125Z,27.33
2017-10-19T00:38:13.193Z,30.27
2017-10-19T00:40:40.033Z,25.05
2017-10-19T00:43:06.810Z,31.10
2017-10-19T00:45:32.870Z,28.23
2017-10-19T00:47:58.938Z,27.30
2017-10-19T00:50:25.002Z,29.90
2017-10-19T00:52:51.082Z,31.25
2017-10-19T00:55:17.145Z,32.05
2017-10-19T00:57:43.230Z,32.33
2017-10-19T01:00:09.278Z,29.30
2017-10-19T01:02:35.533Z,28.15
2017-10-19T01:05:01.606Z,28.17
2017-10-19T01:07:27.666Z,29.73
2017-10-19T01:09:54.026Z,31.02
2017-10-19T01:12:20.821Z,27.33
2017-10-19T01:14:46.870Z,28.35
2017-10-19T01:17:12.988Z,29.90
2017-10-19T01:19:39.944Z,27.43
2017-10-19T01:22:06.019Z,27.37
2017-10-19T01:24:32.109Z,28.37
2017-10-19T01:26:58.418Z,29.42
2017-10-19T01:29:24.467Z,26.87
2017-10-19T01:31:50.559Z,24.70
2017-10-19T01:34:17.382Z,24.87
2017-10-19T01:36:43.445Z,27.97
2017-10-19T01:39:10.249Z,29.58
2017-10-19T01:41:36.338Z,26.30
2017-10-19T01:44:02.409Z,25.02
2017-10-19T01:46:28.475Z,26.33
2017-10-19T01:48:54.542Z,28.05
2017-10-19T01:51:20.575Z,31.10
2017-10-19T01:53:47.374Z,24.95
2017-10-19T01:56:13.452Z,24.70
2017-10-19T01:58:40.269Z,27.33
2017-10-19T02:01:06.306Z,27.98
2017-10-19T02:03:32.366Z,26.08
2017-10-19T02:05:58.409Z,26.37
2017-10-19T02:08:24.462Z,30.02
2017-10-19T02:10:50.546Z,28.60
2017-10-19T02:13:16.593Z,28.25
2017-10-19T02:15:42.670Z,25.48
2017-10-19T02:18:08.722Z,23.58
2017-10-19T02:20:34.780Z,29.42
2017-10-19T02:23:01.574Z,26.97
2017-10-19T02:25:28.166Z,31.30
2017-10-19T02:27:54.937Z,24.58
2017-10-19T02:30:21.047Z,33.30
2017-10-19T02:32:47.165Z,25.35
2017-10-19T02:35:13.995Z,25.27
2017-10-19T02:37:40.866Z,27.60
2017-10-19T02:40:06.938Z,27.23
2017-10-19T02:42:32.999Z,29.63
2017-10-19T02:44:59.090Z,29.33
2017-10-19T02:47:25.180Z,31.00
2017-10-19T02:49:51.286Z,24.17
2017-10-19T02:52:17.392Z,24.77
2017-10-19T02:54:44.638Z,27.98
2017-10-19T02:57:10.720Z,26.42
2017-10-19T02:59:36.808Z,28.90
2017-10-19T03:02:02.914Z,29.58
2017-10-19T03:04:28.949Z,28.15
2017-10-19T03:06:55.014Z,23.25
2017-10-19T03:09:21.106Z,29.85
2017-10-19T03:11:47.193Z,29.58
2017-10-19T03:14:14.014Z,28.27
2017-10-19T03:16:40.073Z,27.83
2017-10-19T03:19:06.113Z,24.15
2017-10-19T03:21:32.230Z,31.10
2017-10-19T03:23:58.306Z,29.57
2017-10-19T03:26:24.390Z,26.45
2017-10-19T03:28:50.528Z,26.67
2017-10-19T03:31:16.612Z,30.33
2017-10-19T03:33:42.671Z,27.85
2017-10-19T03:36:09.041Z,26.90
2017-10-19T03:38:35.892Z,26.87
2017-10-19T03:41:02.695Z,25.65
2017-10-19T03:43:28.770Z,29.30
2017-10-19T03:45:54.817Z,27.55
2017-10-19T03:48:20.928Z,25.52
2017-10-19T03:50:47.060Z,22.77
2017-10-19T03:53:13.110Z,27.25
2017-10-19T03:55:39.195Z,26.20
2017-10-19T03:58:05.316Z,30.62
2017-10-19T04:00:31.397Z,27.25
2017-10-19T04:02:57.487Z,26.52
2017-10-19T04:05:23.787Z,36.23
2017-10-19T04:07:49.680Z,28.62
2017-10-19T04:10:16.317Z,34.25
2017-10-19T04:12:43.272Z,28.92
2017-10-19T04:15:09.172Z,25.47
2017-10-19T04:17:35.812Z,30.12
2017-10-19T04:20:02.673Z,31.65
2017-10-19T04:22:28.568Z,26.98
2017-10-19T04:24:55.212Z,26.23
2017-10-19T04:29:54.506Z,27.90
2017-10-19T04:32:20.491Z,26.45
2017-10-19T04:34:46.561Z,32.97
2017-10-19T04:37:13.353Z,26.58
2017-10-19T04:39:39.419Z,29.03
2017-10-19T04:42:05.482Z,29.25
2017-10-19T04:44:31.521Z,31.48
2017-10-19T04:46:57.599Z,34.38
2017-10-19T04:49:24.649Z,34.55
2017-10-19T04:51:51.447Z,28.92
2017-10-19T04:54:17.502Z,30.27
2017-10-19T04:56:44.313Z,26.40
2017-10-19T04:59:10.365Z,28.23
2017-10-19T05:01:37.149Z,27.52
2017-10-19T05:04:03.237Z,29.20
2017-10-19T05:06:29.997Z,31.27
2017-10-19T05:08:56.033Z,32.97
2017-10-19T05:11:22.109Z,31.58
2017-10-19T05:13:48.218Z,28.05
2017-10-19T05:16:14.293Z,33.25
2017-10-19T05:18:40.357Z,39.33
2017-10-19T05:21:06.434Z,32.22
2017-10-19T05:23:32.734Z,32.42
2017-10-19T05:25:59.547Z,28.37
2017-10-19T05:28:25.632Z,33.70
2017-10-19T05:30:51.699Z,36.53
2017-10-19T05:33:17.757Z,31.12
2017-10-19T05:35:44.537Z,33.20
2017-10-19T05:38:10.619Z,24.50
2017-10-19T05:40:36.652Z,26.42
2017-10-19T05:43:02.742Z,32.42
2017-10-19T05:45:28.782Z,30.50
2017-10-19T05:47:55.566Z,33.15
2017-10-19T05:50:22.049Z,33.97
2017-10-19T05:52:48.865Z,32.90
2017-10-19T05:55:15.657Z,34.08
2017-10-19T05:57:41.842Z,30.65
2017-10-19T06:00:07.878Z,32.13
2017-10-19T06:02:34.662Z,27.45
2017-10-19T06:05:00.721Z,31.20
2017-10-19T06:07:26.754Z,30.88
2017-10-19T06:09:53.600Z,27.80
2017-10-19T06:12:20.390Z,30.67
2017-10-19T06:14:46.428Z,28.02
2017-10-19T06:17:12.478Z,34.28
2017-10-19T06:19:39.627Z,25.33
2017-10-19T06:22:06.610Z,33.78
2017-10-19T06:24:32.658Z,27.00
2017-10-19T06:26:58.913Z,27.33
2017-10-19T06:29:24.961Z,30.20
2017-10-19T06:31:51.738Z,28.43
2017-10-19T06:34:18.621Z,27.92
2017-10-19T06:36:44.649Z,29.65
2017-10-19T06:39:11.475Z,32.83
2017-10-19T06:41:37.558Z,34.85
2017-10-19T06:44:03.611Z,36.17
2017-10-19T06:46:29.657Z,37.45
2017-10-19T06:48:56.453Z,38.17
2017-10-19T06:51:22.490Z,45.10
2017-10-19T06:53:48.554Z,47.15
2017-10-19T06:56:15.341Z,52.42
2017-10-19T06:58:41.375Z,69.20
2017-10-19T07:01:07.453Z,61.33
2017-10-19T07:03:33.539Z,56.20
2017-10-19T07:05:59.587Z,58.63
2017-10-19T07:08:26.414Z,55.70
2017-10-19T07:10:53.318Z,59.20
2017-10-19T07:13:19.389Z,60.08
2017-10-19T07:15:46.207Z,65.97
2017-10-19T07:18:12.282Z,67.50
2017-10-19T07:20:38.334Z,66.03
2017-10-19T07:23:04.414Z,72.72
2017-10-19T07:25:30.518Z,78.65
2017-10-19T07:27:57.309Z,67.57
2017-10-19T07:30:23.365Z,70.10
2017-10-19T07:32:49.453Z,73.10
2017-10-19T07:35:15.508Z,72.07
2017-10-19T07:37:41.554Z,73.32
2017-10-19T07:40:08.366Z,69.82
2017-10-19T07:42:34.418Z,65.12
2017-10-19T07:45:01.210Z,64.40
2017-10-19T07:47:27.473Z,60.65
2017-10-19T07:49:54.250Z,70.12
2017-10-19T07:52:20.298Z,59.55
2017-10-19T07:54:46.374Z,64.00
2017-10-19T07:57:12.437Z,56.78
2017-10-19T07:59:38.466Z,56.00
2017-10-19T08:02:04.533Z,56.30
2017-10-19T08:04:31.302Z,62.30
2017-10-19T08:06:57.333Z,59.95
2017-10-19T08:09:23.462Z,54.67
2017-10-19T08:11:49.526Z,49.13
2017-10-19T08:14:16.316Z,57.30
2017-10-19T08:16:42.701Z,50.75
2017-10-19T08:19:09.473Z,49.58
2017-10-19T08:21:35.549Z,52.85
2017-10-19T08:24:01.611Z,48.85
2017-10-19T08:26:27.638Z,51.17
2017-10-19T08:28:53.674Z,45.30
2017-10-19T08:31:19.737Z,51.00
2017-10-19T08:33:45.791Z,47.97
2017-10-19T08:36:11.814Z,42.97
2017-10-19T08:38:37.851Z,41.33
2017-10-19T08:41:03.889Z,44.70
2017-10-19T08:43:29.929Z,43.33
2017-10-19T08:45:55.990Z,40.22
2017-10-19T08:48:23.124Z,45.25
2017-10-19T08:50:49.158Z,42.35
2017-10-19T08:53:15.919Z,49.00
2017-10-19T08:55:41.980Z,78.62
2017-10-19T08:58:08.025Z,77.28
2017-10-19T09:00:34.061Z,71.37
2017-10-19T09:03:00.877Z,66.00
2017-10-19T09:05:26.902Z,54.15
2017-10-19T09:07:52.930Z,48.17
2017-10-19T09:10:19.270Z,53.47
2017-10-19T09:12:46.044Z,41.10
2017-10-19T09:15:12.066Z,42.15
2017-10-19T09:17:38.089Z,45.38
2017-10-19T09:20:04.177Z,42.03
2017-10-19T09:22:30.198Z,51.83
2017-10-19T09:24:56.275Z,42.83
2017-10-19T09:27:22.325Z,53.42
2017-10-19T09:29:48.361Z,50.45
2017-10-19T09:32:14.394Z,51.55
2017-10-19T09:34:41.209Z,43.97
2017-10-19T09:37:07.301Z,48.70
2017-10-19T09:39:33.406Z,47.17
2017-10-19T09:41:59.446Z,47.05
2017-10-19T09:44:25.521Z,43.38
2017-10-19T09:46:52.300Z,42.30
2017-10-19T09:49:18.346Z,42.53
2017-10-19T09:51:44.606Z,43.55
2017-10-19T09:54:10.565Z,45.75
2017-10-19T09:56:43.575Z,48.60
2017-10-19T09:59:10.564Z,52.53
2017-10-19T10:01:44.288Z,41.20
2017-10-19T10:04:10.492Z,47.05
2017-10-19T10:06:37.199Z,49.03
2017-10-19T10:09:03.161Z,49.95
2017-10-19T10:11:29.457Z,48.20
2017-10-19T10:13:56.249Z,45.90
2017-10-19T10:16:22.289Z,50.03
2017-10-19T10:18:48.557Z,51.78
2017-10-19T10:21:15.347Z,53.93
2017-10-19T10:23:41.408Z,56.78
2017-10-19T10:26:07.485Z,52.00
2017-10-19T10:28:33.534Z,53.10
2017-10-19T10:30:59.583Z,61.25
2017-10-19T10:33:25.636Z,56.05
2017-10-19T10:35:51.665Z,62.63
2017-10-19T10:38:17.705Z,55.90
2017-10-19T10:40:43.729Z,56.50
2017-10-19T10:43:09.774Z,60.20
2017-10-19T10:45:35.818Z,54.90
2017-10-19T10:48:02.637Z,54.47
2017-10-19T10:50:28.681Z,59.38
2017-10-19T10:52:55.445Z,58.13
2017-10-19T10:55:21.733Z,60.33
2017-10-19T10:57:47.759Z,55.95
2017-10-19T11:00:13.825Z,60.40
2017-10-19T11:02:39.914Z,58.42
2017-10-19T11:05:06.691Z,58.30
2017-10-19T11:07:32.717Z,59.93
2017-10-19T11:09:58.801Z,60.12
2017-10-19T11:12:25.602Z,58.85
2017-10-19T11:14:51.653Z,54.95
2017-10-19T11:17:17.993Z,62.67
2017-10-19T11:19:44.765Z,60.92
2017-10-19T11:22:10.775Z,55.30
2017-10-19T11:24:37.170Z,58.47
2017-10-19T11:27:03.969Z,59.95
2017-10-19T11:29:30.001Z,56.55
2017-10-19T11:31:57.069Z,57.67
2017-10-19T11:34:23.489Z,58.38
2017-10-19T11:36:49.545Z,60.40
2017-10-19T11:39:16.681Z,60.53
2017-10-19T11:41:43.457Z,62.17
2017-10-19T11:44:09.471Z,67.37
2017-10-19T11:46:35.557Z,62.75
2017-10-19T11:49:01.579Z,70.67
2017-10-19T11:51:27.624Z,66.20
2017-10-19T11:53:54.393Z,64.47
2017-10-19T11:56:20.677Z,63.65
2017-10-19T11:58:47.451Z,60.97
2017-10-19T12:01:13.486Z,64.32
2017-10-19T12:03:39.563Z,60.85
2017-10-19T12:06:06.333Z,62.10
2017-10-19T12:08:32.386Z,53.60
2017-10-19T12:10:58.478Z,57.10
2017-10-19T12:13:24.519Z,56.03
2017-10-19T12:15:50.562Z,65.65
2017-10-19T12:18:16.688Z,64.05
2017-10-19T12:20:42.736Z,57.58
2017-10-19T12:23:08.773Z,59.80
2017-10-19T12:25:34.825Z,60.92
2017-10-19T12:28:00.859Z,59.42
2017-10-19T12:30:26.945Z,58.87
2017-10-19T12:32:52.984Z,54.70
2017-10-19T12:35:19.018Z,57.25
2017-10-19T12:37:45.082Z,61.63
2017-10-19T12:40:11.879Z,61.90
2017-10-19T12:42:37.922Z,56.92
2017-10-19T12:45:03.981Z,58.95
2017-10-19T12:47:30.767Z,55.50
2017-10-19T12:49:56.802Z,61.13
2017-10-19T12:52:23.869Z,59.65
2017-10-19T12:54:49.917Z,60.97
2017-10-19T12:57:15.990Z,56.47
2017-10-19T12:59:42.247Z,56.70
2017-10-19T13:02:09.021Z,69.73
2017-10-19T13:04:35.064Z,52.13
2017-10-19T13:07:01.114Z,56.17
2017-10-19T13:09:27.157Z,52.97
2017-10-19T13:11:53.935Z,52.85
2017-10-19T13:14:19.986Z,52.50
2017-10-19T13:16:46.045Z,56.33
2017-10-19T13:19:12.850Z,54.75
2017-10-19T13:21:38.893Z,53.35
2017-10-19T13:24:05.686Z,53.58
2017-10-19T13:26:31.782Z,54.50
2017-10-19T13:28:57.818Z,51.37
2017-10-19T13:31:23.849Z,51.45
2017-10-19T13:33:49.889Z,54.22
2017-10-19T13:36:15.931Z,51.97
2017-10-19T13:38:41.962Z,48.83
2017-10-19T13:41:08.750Z,57.70
2017-10-19T13:43:34.798Z,53.55
2017-10-19T13:46:01.166Z,55.17
2017-10-19T13:48:27.949Z,53.97
2017-10-19T13:50:53.969Z,55.87
2017-10-19T13:53:20.301Z,53.20
2017-10-19T13:55:46.353Z,54.10
2017-10-19T13:58:12.397Z,52.78
2017-10-19T14:00:39.532Z,55.85
2017-10-19T14:03:06.302Z,54.90
2017-10-19T14:05:32.349Z,58.97
2017-10-19T14:07:58.543Z,52.40
2017-10-19T14:10:24.583Z,58.55
2017-10-19T14:12:50.637Z,57.95
2017-10-19T14:15:16.714Z,59.85
2017-10-19T14:17:42.738Z,58.30
2017-10-19T14:20:08.789Z,56.25
2017-10-19T14:22:35.170Z,53.97
2017-10-19T14:25:01.942Z,58.42
2017-10-19T14:27:27.978Z,60.00
2017-10-19T14:29:54.134Z,58.20
2017-10-19T14:32:20.186Z,60.75
2017-10-19T14:34:46.217Z,63.10
2017-10-19T14:37:12.262Z,63.92
2017-10-19T14:39:38.318Z,62.00
2017-10-19T14:42:04.382Z,60.42
2017-10-19T14:44:30.439Z,64.00
2017-10-19T14:46:56.493Z,62.33
2017-10-19T14:49:22.549Z,63.97
2017-10-19T14:51:48.625Z,62.47
2017-10-19T14:54:16.158Z,73.22
2017-10-19T14:56:42.194Z,73.30
2017-10-19T14:59:08.442Z,69.68
2017-10-19T15:01:34.483Z,68.20
2017-10-19T15:04:01.266Z,69.32
2017-10-19T15:06:27.642Z,67.15
2017-10-19T15:08:54.449Z,68.05
2017-10-19T15:11:20.473Z,68.83
2017-10-19T15:13:46.540Z,69.30
2017-10-19T15:16:13.323Z,69.00
2017-10-19T15:18:39.419Z,70.12
2017-10-19T15:21:05.470Z,69.87
2017-10-19T15:23:31.521Z,72.65
2017-10-19T15:25:57.565Z,67.93
2017-10-19T15:28:31.482Z,68.32
2017-10-19T15:30:57.530Z,72.68
2017-10-19T15:33:23.609Z,69.87
2017-10-19T15:35:50.414Z,74.60
2017-10-19T15:38:16.582Z,63.83
2017-10-19T15:40:42.651Z,69.78
2017-10-19T15:43:08.701Z,75.20
2017-10-19T15:45:34.801Z,73.07
2017-10-19T15:48:00.845Z,70.43
2017-10-19T15:50:26.906Z,71.57
2017-10-19T15:52:52.971Z,75.93
2017-10-19T15:55:19.018Z,74.80
2017-10-19T15:57:45.834Z,76.62
2017-10-19T16:00:12.304Z,65.57
2017-10-19T16:02:39.130Z,72.87
2017-10-19T16:05:05.177Z,77.00
2017-10-19T16:07:31.272Z,73.87
2017-10-19T16:09:57.336Z,75.68
2017-10-19T16:12:23.382Z,73.28
2017-10-19T16:14:49.459Z,77.80
2017-10-19T16:17:16.243Z,70.15
2017-10-19T16:19:42.336Z,75.65
2017-10-19T16:22:08.416Z,75.62
2017-10-19T16:24:34.502Z,79.95
2017-10-19T16:27:00.562Z,71.32
2017-10-19T16:29:26.602Z,74.47
2017-10-19T16:31:53.762Z,78.20
2017-10-19T16:34:20.534Z,72.80
2017-10-19T16:36:46.625Z,73.53
2017-10-19T16:39:13.441Z,69.37
2017-10-19T16:41:40.242Z,71.25
2017-10-19T16:44:06.294Z,69.32
2017-10-19T16:46:32.415Z,70.60
2017-10-19T16:48:59.201Z,71.80
2017-10-19T16:51:25.249Z,67.00
2017-10-19T16:53:52.335Z,67.87
2017-10-19T16:56:18.393Z,69.50
2017-10-19T16:58:44.430Z,70.67
2017-10-19T17:01:10.477Z,66.65
2017-10-19T17:03:36.849Z,74.57
2017-10-19T17:06:03.634Z,71.05
2017-10-19T17:08:29.677Z,70.07
2017-10-19T17:10:55.764Z,71.37
2017-10-19T17:13:21.814Z,74.20
2017-10-19T17:15:47.877Z,73.45
2017-10-19T17:18:14.667Z,78.47
2017-10-19T17:20:40.709Z,79.87
2017-10-19T17:23:06.733Z,78.53
2017-10-19T17:25:32.782Z,76.15
2017-10-19T17:27:58.829Z,75.53
2017-10-19T17:30:24.865Z,79.68
2017-10-19T17:32:51.235Z,80.90
2017-10-19T17:35:17.299Z,75.93
2017-10-19T17:37:43.334Z,80.70
2017-10-19T17:40:09.406Z,83.43
2017-10-19T17:42:36.189Z,83.18
2017-10-19T17:45:02.310Z,82.80
2017-10-19T17:47:28.362Z,79.85
2017-10-19T17:49:54.443Z,81.65
2017-10-19T17:52:20.538Z,80.62
2017-10-19T17:54:47.362Z,83.50
2017-10-19T17:57:13.710Z,87.60
2017-10-19T17:59:40.501Z,86.05
2017-10-19T18:02:06.558Z,80.40
2017-10-19T18:04:32.633Z,90.03
2017-10-19T18:06:58.717Z,85.17
2017-10-19T18:09:25.583Z,88.03
2017-10-19T18:11:51.606Z,93.23
2017-10-19T18:14:17.635Z,90.47
2017-10-19T18:16:43.694Z,86.13
2017-10-19T18:19:09.757Z,88.43
2017-10-19T18:21:36.554Z,95.82
2017-10-19T18:24:02.630Z,94.53
2017-10-19T18:26:28.667Z,90.47
2017-10-19T18:28:54.696Z,92.18
2017-10-19T18:31:21.597Z,95.05
2017-10-19T18:33:48.421Z,93.45
2017-10-19T18:36:15.986Z,86.68
2017-10-19T18:38:42.053Z,91.45
2017-10-19T18:41:08.086Z,96.97
2017-10-19T18:43:34.148Z,98.17
2017-10-19T18:46:00.493Z,99.95
2017-10-19T18:48:27.280Z,95.80
2017-10-19T18:50:53.429Z,105.70
2017-10-19T18:53:19.545Z,96.43
2017-10-19T18:55:45.565Z,98.17
2017-10-19T18:58:11.723Z,99.28
2017-10-19T19:00:38.554Z,103.45
2017-10-19T19:03:04.706Z,109.37
2017-10-19T19:05:30.776Z,106.47
2017-10-19T19:07:56.847Z,103.45
2017-10-19T19:10:23.637Z,110.72
2017-10-19T19:12:49.701Z,105.85
2017-10-19T19:15:17.353Z,109.95
2017-10-19T19:17:44.150Z,112.97
2017-10-19T19:20:10.198Z,111.88
2017-10-19T19:22:36.258Z,119.30
2017-10-19T19:25:02.330Z,115.37
2017-10-19T19:27:28.419Z,115.90
2017-10-19T19:29:54.468Z,121.33
2017-10-19T19:32:20.502Z,113.72
2017-10-19T19:34:46.562Z,118.93
2017-10-19T19:37:13.367Z,121.05
2017-10-19T19:39:39.428Z,114.95
2017-10-19T19:42:05.511Z,115.25
2017-10-19T19:44:31.541Z,117.30
2017-10-19T19:46:57.638Z,124.30
2017-10-19T19:49:24.503Z,119.47
2017-10-19T19:51:50.557Z,119.50
2017-10-19T19:54:17.599Z,115.32
2017-10-19T19:56:44.398Z,130.65
2017-10-19T19:59:10.442Z,119.43
2017-10-19T20:01:36.515Z,118.93
2017-10-19T20:04:02.628Z,118.13
2017-10-19T20:06:28.673Z,121.60
2017-10-19T20:08:54.742Z,114.15
2017-10-19T20:11:20.822Z,122.77
2017-10-19T20:13:46.890Z,118.47
2017-10-19T20:16:13.670Z,126.97
2017-10-19T20:18:39.720Z,121.62
2017-10-19T20:21:05.989Z,126.13
2017-10-19T20:23:32.796Z,127.65
2017-10-19T20:25:58.847Z,123.60
2017-10-19T20:28:25.872Z,120.97
2017-10-19T20:30:51.921Z,118.78
2017-10-19T20:33:18.710Z,127.00
2017-10-19T20:35:44.778Z,134.32
2017-10-19T20:38:11.571Z,119.65
2017-10-19T20:40:37.635Z,128.32
2017-10-19T20:43:04.437Z,130.87
2017-10-19T20:45:30.493Z,131.77
2017-10-19T20:47:57.286Z,139.25
2017-10-19T20:50:23.322Z,129.40
2017-10-19T20:52:49.373Z,128.65
2017-10-19T20:55:16.427Z,131.33
2017-10-19T20:57:44.065Z,135.23
2017-10-19T21:00:10.115Z,137.75
2017-10-19T21:02:36.937Z,131.90
2017-10-19T21:05:03.862Z,136.20
2017-10-19T21:07:29.949Z,131.40
2017-10-19T21:09:55.987Z,124.62
2017-10-19T21:12:22.033Z,134.43
2017-10-19T21:14:48.411Z,126.20
2017-10-19T21:17:14.478Z,134.50
2017-10-19T21:19:40.521Z,133.40
2017-10-19T21:22:06.586Z,137.27
2017-10-19T21:24:32.652Z,129.43
2017-10-19T21:26:58.707Z,123.82
2017-10-19T21:29:32.558Z,132.43
2017-10-19T21:31:58.593Z,134.77
2017-10-19T21:34:24.638Z,133.73
2017-10-19T21:36:50.721Z,132.40
2017-10-19T21:39:16.793Z,125.85
2017-10-19T21:41:42.842Z,134.48
2017-10-19T21:44:08.915Z,132.20
2017-10-19T21:46:34.969Z,130.85
2017-10-19T21:49:01.745Z,130.53
2017-10-19T21:51:28.034Z,138.57
2017-10-19T21:53:55.033Z,137.70
2017-10-19T21:56:21.426Z,136.37
2017-10-19T21:58:47.729Z,129.73
2017-10-19T22:01:13.801Z,135.02
2017-10-19T22:03:39.862Z,138.43
2017-10-19T22:06:05.946Z,135.00
2017-10-19T22:08:32.001Z,138.03
2017-10-19T22:10:58.040Z,134.30
2017-10-19T22:13:27.305Z,130.63
2017-10-19T22:15:53.351Z,134.37
2017-10-19T22:18:19.793Z,139.77
2017-10-19T22:20:45.844Z,133.52
2017-10-19T22:23:19.006Z,134.60
2017-10-19T22:25:45.038Z,145.23
2017-10-19T22:28:11.827Z,129.50
2017-10-19T22:30:37.939Z,129.00
2017-10-19T22:33:04.002Z,130.27
2017-10-19T22:35:30.042Z,137.93
2017-10-19T22:37:56.846Z,134.52
2017-10-19T22:40:22.882Z,134.60
2017-10-19T22:42:48.953Z,134.17
2017-10-19T22:45:15.030Z,136.50
2017-10-19T22:47:41.073Z,134.77
2017-10-19T22:50:07.859Z,138.27
2017-10-19T22:52:33.947Z,133.57
2017-10-19T22:55:00.739Z,129.57
2017-10-19T22:57:26.781Z,131.20
2017-10-19T22:59:52.849Z,135.63
2017-10-19T23:02:18.892Z,125.93
2017-10-19T23:04:44.943Z,120.68
2017-10-19T23:07:11.007Z,131.00
2017-10-19T23:09:37.050Z,133.40
2017-10-19T23:12:03.093Z,128.45
2017-10-19T23:14:29.165Z,130.52
2017-10-19T23:16:55.955Z,127.22
2017-10-19T23:19:22.010Z,130.50
2017-10-19T23:21:48.066Z,124.85
2017-10-19T23:24:14.102Z,129.85
2017-10-19T23:26:40.336Z,133.75
2017-10-19T23:29:06.390Z,126.82
2017-10-19T23:31:32.413Z,132.77
2017-10-19T23:33:58.480Z,128.02
2017-10-19T23:36:24.510Z,130.32
2017-10-19T23:38:50.550Z,123.18
2017-10-19T23:41:16.609Z,128.57
2017-10-19T23:43:42.642Z,125.80
2017-10-19T23:46:09.395Z,123.93
2017-10-19T23:48:36.422Z,130.35
2017-10-19T23:51:03.210Z,137.10
2017-10-19T23:53:29.258Z,132.33
2017-10-19T23:55:55.310Z,139.25
2017-10-19T23:58:22.065Z,127.28
